Time;durP1;ratioP1;P1;durP2;ratioP2;P2;SDS_P1;SDS_P2;PMS_P1;PMS_P2;Temp;Humidity;BMP_temperature;BMP_pressure;BME280_temperature;BME280_humidity;BME280_pressure;Samples;Min_cycle;Max_cycle;Signal;HPM_P1;HPM_P2
2022/03/26 00:01:06;;;;;;;65.65;33.03;;;;;;;;;;4698765;28;9999808;-70
2022/03/26 00:03:33;;;;;;;58.55;32.38;;;;;;;;;;5049009;28;20037;-70
2022/03/26 00:05:59;;;;;;;60.45;32.33;;;8.10;85.20;;;;;;5048808;28;20025;-71
2022/03/26 00:08:25;;;;;;;58.13;33.05;;;7.80;87.50;;;;;;5041347;28;20035;-70
2022/03/26 00:10:50;;;;;;;61.50;32.97;;;7.50;88.80;;;;;;5041945;28;20021;-70
2022/03/26 00:13:17;;;;;;;64.15;33.60;;;7.20;90.00;;;;;;5044575;28;20111;-70
2022/03/26 00:15:42;;;;;;;60.35;33.33;;;7.00;90.50;;;;;;5044034;28;20025;-70
2022/03/26 00:18:08;;;;;;;58.97;32.72;;;6.90;90.90;;;;;;5040966;28;20145;-70
2022/03/26 00:20:34;;;;;;;57.75;32.53;;;6.70;91.30;;;;;;5048032;28;20044;-70
2022/03/26 00:22:59;;;;;;;60.63;32.45;;;6.60;91.80;;;;;;5049024;28;20452;-70
2022/03/26 00:25:25;;;;;;;59.63;33.28;;;6.40;92.10;;;;;;5041455;28;20109;-70
2022/03/26 00:27:51;;;;;;;64.68;33.67;;;6.40;92.80;;;;;;5041989;28;20036;-70
2022/03/26 00:30:16;;;;;;;65.40;32.95;;;6.30;92.80;;;;;;5048417;28;20051;-70
2022/03/26 00:32:42;;;;;;;61.13;32.38;;;6.20;93.20;;;;;;5031332;28;20033;-70
2022/03/26 00:35:09;;;;;;;61.70;32.53;;;6.10;93.50;;;;;;5047954;28;20530;-70
2022/03/26 00:37:40;;;;;;;58.22;29.73;;;6.10;93.80;;;;;;5039296;28;20459;-70
2022/03/26 00:40:07;;;;;;;53.67;30.85;;;6.00;94.20;;;;;;5050682;28;20120;-70
2022/03/26 00:42:32;;;;;;;62.35;31.75;;;5.90;94.50;;;;;;5043144;28;20017;-70
2022/03/26 00:44:58;;;;;;;56.05;31.00;;;5.90;94.90;;;;;;5037633;28;20488;-70
2022/03/26 00:47:23;;;;;;;63.80;31.98;;;5.90;95.20;;;;;;5037191;28;20061;-70
2022/03/26 00:49:49;;;;;;;58.50;30.75;;;6.00;95.30;;;;;;5054068;28;20598;-70
2022/03/26 00:52:14;;;;;;;57.70;30.83;;;6.20;95.20;;;;;;5046495;28;20052;-70
2022/03/26 00:54:40;;;;;;;65.53;31.65;;;6.30;94.90;;;;;;5057199;28;20021;-70
2022/03/26 00:57:06;;;;;;;51.35;29.17;;;6.30;94.90;;;;;;5038424;28;20046;-70
2022/03/26 00:59:31;;;;;;;56.03;30.70;;;6.20;95.00;;;;;;5046075;28;20045;-70
2022/03/26 01:01:58;;;;;;;55.65;30.90;;;6.20;95.30;;;;;;5048690;28;20029;-70
2022/03/26 01:04:23;;;;;;;61.47;32.58;;;6.20;95.80;;;;;;5033274;28;20069;-70
2022/03/26 01:06:49;;;;;;;65.80;33.28;;;6.30;95.80;;;;;;5047100;28;20052;-70
2022/03/26 01:09:14;;;;;;;57.72;31.73;;;6.50;95.60;;;;;;5037300;28;20021;-70
2022/03/26 01:11:40;;;;;;;58.42;30.90;;;6.60;95.40;;;;;;5048348;28;20028;-70
2022/03/26 01:14:06;;;;;;;54.72;30.67;;;6.70;95.10;;;;;;5037970;28;20033;-70
2022/03/26 01:16:32;;;;;;;55.97;30.58;;;6.70;95.20;;;;;;5036541;28;20114;-70
2022/03/26 01:18:58;;;;;;;52.20;28.95;;;6.50;95.50;;;;;;5030761;28;20101;-70
2022/03/26 01:21:23;;;;;;;55.28;30.58;;;6.40;95.80;;;;;;5042761;28;20025;-70
2022/03/26 01:23:49;;;;;;;53.25;29.60;;;6.30;96.20;;;;;;5043319;28;20446;-70
2022/03/26 01:26:17;;;;;;;54.97;29.92;;;6.20;96.70;;;;;;5042951;28;20481;-70
2022/03/26 01:28:43;;;;;;;54.65;30.80;;;6.20;97.00;;;;;;5038519;28;20495;-70
2022/03/26 01:31:09;;;;;;;56.08;29.85;;;6.10;97.20;;;;;;5049262;28;20044;-70
2022/03/26 01:33:35;;;;;;;52.67;30.38;;;6.10;97.40;;;;;;5034286;28;20052;-70
2022/03/26 01:36:01;;;;;;;51.53;29.63;;;6.20;97.60;;;;;;5041454;28;20067;-70
2022/03/26 01:38:26;;;;;;;53.70;31.00;;;6.10;97.70;;;;;;5045756;28;20047;-70
2022/03/26 01:40:52;;;;;;;57.40;32.30;;;6.10;97.90;;;;;;5031433;28;20045;-70
2022/03/26 01:43:18;;;;;;;53.28;30.30;;;6.10;98.10;;;;;;5033786;28;20032;-70
2022/03/26 01:45:43;;;;;;;55.78;31.63;;;6.00;98.30;;;;;;5033400;28;20121;-70
2022/03/26 01:48:09;;;;;;;58.47;31.13;;;6.00;98.60;;;;;;5045276;28;20024;-70
2022/03/26 01:50:35;;;;;;;57.10;31.63;;;6.10;98.50;;;;;;5044728;28;20029;-70
2022/03/26 01:53:01;;;;;;;55.58;30.23;;;6.10;98.50;;;;;;5049822;28;20108;-70
2022/03/26 01:55:28;;;;;;;58.50;32.15;;;6.10;98.50;;;;;;5049303;28;20108;-70
2022/03/26 01:57:55;;;;;;;56.15;31.70;;;6.00;98.80;;;;;;5048331;28;20021;-70
2022/03/26 02:00:21;;;;;;;54.25;31.25;;;5.90;99.00;;;;;;5037377;28;20029;-70
2022/03/26 02:02:47;;;;;;;54.53;30.20;;;5.80;99.30;;;;;;5041787;28;20029;-70
2022/03/26 02:05:17;;;;;;;58.20;31.05;;;5.70;99.60;;;;;;5046817;28;20024;-70
2022/03/26 02:07:47;;;;;;;57.97;32.25;;;5.60;99.90;;;;;;5031974;28;20029;-70
2022/03/26 02:10:17;;;;;;;54.95;31.15;;;5.50;99.90;;;;;;5044472;28;20032;-70
2022/03/26 02:12:45;;;;;;;54.72;30.45;;;5.50;99.90;;;;;;5037416;28;20226;-70
2022/03/26 02:15:11;;;;;;;60.25;31.60;;;5.40;99.90;;;;;;5038634;28;20037;-70
2022/03/26 02:17:37;;;;;;;54.30;31.00;;;5.30;99.90;;;;;;5036216;28;20534;-70
2022/03/26 02:20:06;;;;;;;56.88;31.00;;;5.30;99.90;;;;;;5037177;28;20021;-70
2022/03/26 02:22:31;;;;;;;61.83;31.80;;;5.40;99.90;;;;;;5033137;28;20021;-70
2022/03/26 02:24:57;;;;;;;58.90;32.10;;;5.30;99.90;;;;;;5046672;28;20032;-70
2022/03/26 02:27:25;;;;;;;55.70;30.58;;;5.20;99.90;;;;;;5040648;28;20093;-70
2022/03/26 02:29:52;;;;;;;60.17;31.58;;;5.20;99.90;;;;;;5045347;28;20567;-70
2022/03/26 02:32:22;;;;;;;59.17;31.40;;;5.10;99.90;;;;;;5056594;28;20043;-70
2022/03/26 02:34:49;;;;;;;56.88;31.50;;;5.10;99.90;;;;;;5040733;28;20032;-70
2022/03/26 02:37:16;;;;;;;57.42;31.33;;;5.00;99.90;;;;;;5036308;28;20032;-70
2022/03/26 02:39:42;;;;;;;59.47;33.65;;;5.00;99.90;;;;;;5047839;28;20435;-70
2022/03/26 02:42:08;;;;;;;62.35;34.50;;;4.90;99.90;;;;;;5041652;28;20396;-69
2022/03/26 02:44:33;;;;;;;62.38;34.20;;;4.90;99.90;;;;;;5039534;28;20021;-69
2022/03/26 02:46:59;;;;;;;56.95;32.47;;;4.80;99.90;;;;;;5046010;28;20131;-69
2022/03/26 02:49:24;;;;;;;59.28;32.35;;;4.80;99.90;;;;;;5037365;28;20087;-69
2022/03/26 02:51:50;;;;;;;58.38;31.08;;;4.70;99.90;;;;;;5051889;28;20041;-69
2022/03/26 02:54:19;;;;;;;58.60;32.55;;;4.70;99.90;;;;;;5040526;28;20032;-70
2022/03/26 02:56:53;;;;;;;64.00;33.40;;;4.70;99.90;;;;;;5039721;28;20025;-69
2022/03/26 02:59:19;;;;;;;58.75;32.80;;;4.70;99.90;;;;;;5048220;28;20083;-69
2022/03/26 03:01:45;;;;;;;57.78;32.92;;;4.60;99.90;;;;;;5041987;28;20032;-69
2022/03/26 03:04:11;;;;;;;58.85;31.55;;;4.50;99.90;;;;;;5050572;28;20029;-69
2022/03/26 03:06:37;;;;;;;53.63;29.60;;;4.50;99.90;;;;;;5036368;28;20435;-69
2022/03/26 03:09:05;;;;;;;63.95;34.05;;;4.50;99.90;;;;;;5053226;28;20021;-70
2022/03/26 03:11:30;;;;;;;60.78;32.30;;;4.40;99.90;;;;;;5041621;28;20100;-69
2022/03/26 03:13:57;;;;;;;57.92;31.83;;;4.30;99.90;;;;;;5044512;28;20494;-69
2022/03/26 03:16:23;;;;;;;60.28;33.03;;;4.30;99.90;;;;;;5043015;28;20033;-69
2022/03/26 03:18:49;;;;;;;56.38;31.45;;;4.30;99.90;;;;;;5039001;28;20021;-69
2022/03/26 03:21:16;;;;;;;63.35;32.63;;;4.30;99.90;;;;;;5044415;28;20025;-69
2022/03/26 03:23:41;;;;;;;63.40;32.42;;;4.20;99.90;;;;;;5048392;28;20091;-69
2022/03/26 03:26:07;;;;;;;61.33;33.55;;;4.20;99.90;;;;;;5041264;28;20028;-69
2022/03/26 03:28:33;;;;;;;60.47;34.17;;;4.20;99.90;;;;;;5042521;28;20043;-69
2022/03/26 03:30:58;;;;;;;62.90;35.03;;;4.30;99.90;;;;;;5050111;28;20032;-69
2022/03/26 03:33:25;;;;;;;72.32;36.53;;;4.30;99.90;;;;;;5038076;28;20018;-69
2022/03/26 03:35:50;;;;;;;64.18;34.75;;;4.30;99.90;;;;;;5028805;28;20082;-69
2022/03/26 03:38:16;;;;;;;58.28;33.22;;;4.30;99.90;;;;;;5041245;28;20048;-69
2022/03/26 03:40:42;;;;;;;60.83;33.90;;;4.30;99.90;;;;;;5044985;28;20285;-69
2022/03/26 03:43:07;;;;;;;63.05;32.40;;;4.20;99.90;;;;;;5043840;28;20079;-69
2022/03/26 03:45:34;;;;;;;62.08;33.40;;;4.20;99.90;;;;;;5049248;28;20040;-69
2022/03/26 03:48:00;;;;;;;59.10;31.70;;;4.10;99.90;;;;;;5042439;28;20036;-70
2022/03/26 03:50:26;;;;;;;64.40;32.85;;;4.10;99.90;;;;;;5047399;28;20018;-69
2022/03/26 03:52:52;;;;;;;70.55;34.20;;;4.10;99.90;;;;;;5049043;28;20021;-69
2022/03/26 03:55:18;;;;;;;67.07;35.00;;;4.10;99.90;;;;;;5042882;28;20601;-69
2022/03/26 03:57:44;;;;;;;61.55;33.70;;;4.00;99.90;;;;;;5045053;28;20049;-69
2022/03/26 04:00:12;;;;;;;61.88;31.98;;;4.00;99.90;;;;;;5050968;28;20025;-69
2022/03/26 04:02:38;;;;;;;64.00;33.25;;;3.90;99.90;;;;;;5042961;28;20091;-69
2022/03/26 04:05:04;;;;;;;62.22;33.22;;;3.90;99.90;;;;;;5044626;28;20043;-69
2022/03/26 04:07:30;;;;;;;61.53;33.05;;;3.80;99.90;;;;;;5029901;28;20393;-69
2022/03/26 04:09:55;;;;;;;62.70;34.10;;;3.80;99.90;;;;;;5044184;28;20082;-69
2022/03/26 04:12:21;;;;;;;60.85;33.45;;;3.80;99.90;;;;;;5051477;28;20370;-69
2022/03/26 04:14:47;;;;;;;60.90;32.55;;;3.80;99.90;;;;;;5055443;28;20028;-69
2022/03/26 04:17:12;;;;;;;63.72;31.60;;;3.80;99.90;;;;;;5046690;28;20131;-69
2022/03/26 04:19:39;;;;;;;66.32;32.75;;;3.80;99.90;;;;;;5044249;28;20128;-69
2022/03/26 04:22:06;;;;;;;64.47;34.55;;;3.80;99.90;;;;;;5045649;28;20377;-69
2022/03/26 04:24:32;;;;;;;63.75;33.80;;;3.90;99.90;;;;;;5038677;28;20408;-69
2022/03/26 04:26:58;;;;;;;61.17;33.53;;;4.10;99.90;;;;;;5049305;28;20028;-69
2022/03/26 04:29:23;;;;;;;62.88;33.85;;;4.30;99.90;;;;;;5047709;28;20041;-69
2022/03/26 04:31:49;;;;;;;61.70;33.45;;;4.40;99.90;;;;;;5043299;28;20703;-69
2022/03/26 04:34:14;;;;;;;61.08;32.40;;;4.40;99.90;;;;;;5047639;28;20437;-69
2022/03/26 04:36:40;;;;;;;58.05;31.65;;;4.40;99.90;;;;;;5041720;28;20025;-69
2022/03/26 04:39:06;;;;;;;59.40;32.20;;;4.30;99.90;;;;;;5049426;28;20037;-69
2022/03/26 04:41:31;;;;;;;65.25;34.22;;;4.20;99.90;;;;;;5045054;28;20708;-69
2022/03/26 04:43:57;;;;;;;55.30;30.67;;;4.10;99.90;;;;;;5044991;28;20056;-70
2022/03/26 04:46:23;;;;;;;58.17;31.67;;;4.00;99.90;;;;;;5041009;28;20028;-69
2022/03/26 04:48:48;;;;;;;61.28;33.17;;;3.90;99.90;;;;;;5042466;28;20032;-69
2022/03/26 04:51:14;;;;;;;62.47;32.38;;;3.80;99.90;;;;;;5050635;28;20048;-69
2022/03/26 04:53:40;;;;;;;63.22;34.30;;;3.70;99.90;;;;;;5035009;28;20551;-69
2022/03/26 04:56:05;;;;;;;63.35;32.67;;;3.70;99.90;;;;;;5048118;28;20029;-69
2022/03/26 04:58:31;;;;;;;70.68;36.90;;;3.60;99.90;;;;;;5051400;28;20036;-69
2022/03/26 05:00:57;;;;;;;70.00;35.65;;;3.60;99.90;;;;;;5050542;28;20063;-69
2022/03/26 05:03:24;;;;;;;67.05;35.53;;;3.60;99.90;;;;;;5046200;28;20024;-69
2022/03/26 05:05:49;;;;;;;66.25;34.05;;;3.50;99.90;;;;;;5050294;28;20749;-69
2022/03/26 05:08:15;;;;;;;67.38;35.17;;;3.50;99.90;;;;;;5040457;28;20021;-69
2022/03/26 05:10:41;;;;;;;68.95;33.40;;;3.40;99.90;;;;;;5042867;28;20029;-69
2022/03/26 05:13:06;;;;;;;62.42;33.85;;;3.30;99.90;;;;;;5039785;28;20468;-69
2022/03/26 05:15:32;;;;;;;63.85;33.15;;;3.30;99.90;;;;;;5041398;28;20021;-69
2022/03/26 05:17:58;;;;;;;66.78;34.35;;;3.20;99.90;;;;;;5042410;28;20029;-69
2022/03/26 05:20:25;;;;;;;67.78;34.50;;;3.10;99.90;;;;;;5038225;28;20551;-69
2022/03/26 05:22:52;;;;;;;65.75;33.17;;;3.10;99.90;;;;;;5045848;28;20033;-69
2022/03/26 05:25:19;;;;;;;61.47;33.05;;;3.00;99.90;;;;;;5053025;28;20029;-69
2022/03/26 05:27:46;;;;;;;65.60;32.72;;;3.00;99.90;;;;;;5033439;28;20032;-69
2022/03/26 05:30:12;;;;;;;57.58;31.42;;;3.00;99.90;;;;;;5043313;28;20740;-69
2022/03/26 05:32:38;;;;;;;65.25;32.35;;;3.00;99.90;;;;;;5047186;28;20029;-69
2022/03/26 05:35:11;;;;;;;61.50;32.15;;;3.00;99.90;;;;;;5033592;28;20087;-68
2022/03/26 05:37:43;;;;;;;59.85;30.88;;;3.00;99.90;;;;;;5043432;28;20041;-69
2022/03/26 05:40:11;;;;;;;59.85;31.05;;;3.10;99.90;;;;;;5036094;28;20037;-69
2022/03/26 05:42:37;;;;;;;58.45;31.60;;;3.10;99.90;;;;;;5034108;28;20041;-69
2022/03/26 05:45:07;;;;;;;55.75;30.00;;;3.10;99.90;;;;;;5035905;28;20197;-69
2022/03/26 05:47:33;;;;;;;60.50;32.30;;;3.10;99.90;;;;;;5040077;28;20275;-69
2022/03/26 05:49:59;;;;;;;61.67;32.75;;;3.20;99.90;;;;;;5031388;28;20071;-69
2022/03/26 05:52:25;;;;;;;57.90;31.38;;;3.20;99.90;;;;;;5034611;28;20032;-69
2022/03/26 05:54:50;;;;;;;58.28;31.35;;;3.20;99.90;;;;;;5042396;28;20124;-69
2022/03/26 05:57:17;;;;;;;60.90;31.08;;;3.20;99.90;;;;;;5045190;28;22566;-69
2022/03/26 05:59:42;;;;;;;57.53;31.98;;;3.20;99.90;;;;;;5042574;28;20041;-69
2022/03/26 06:02:11;;;;;;;59.08;31.05;;;3.30;99.90;;;;;;5046332;28;20033;-69
2022/03/26 06:04:37;;;;;;;62.00;32.60;;;3.40;99.90;;;;;;5035534;28;20029;-69
2022/03/26 06:07:02;;;;;;;62.70;32.95;;;3.40;99.90;;;;;;5049432;28;20158;-69
2022/03/26 06:09:28;;;;;;;63.20;33.50;;;3.40;99.90;;;;;;5057910;28;20029;-69
2022/03/26 06:11:55;;;;;;;58.03;31.65;;;3.50;99.90;;;;;;5053306;28;20028;-68
2022/03/26 06:14:21;;;;;;;67.78;34.40;;;3.60;99.90;;;;;;5039228;28;20029;-68
2022/03/26 06:16:47;;;;;;;58.33;32.38;;;3.60;99.90;;;;;;5049142;28;20036;-69
2022/03/26 06:19:16;;;;;;;65.88;35.13;;;3.70;99.90;;;;;;5034286;28;20100;-68
2022/03/26 06:21:41;;;;;;;74.20;35.03;;;3.70;99.90;;;;;;5041042;28;20029;-68
2022/03/26 06:24:07;;;;;;;70.78;34.95;;;3.70;99.90;;;;;;5032800;28;20025;-68
2022/03/26 06:26:34;;;;;;;70.70;34.80;;;3.80;99.90;;;;;;4687723;28;9999945;-67
2022/03/26 06:29:00;;;;;;;64.00;33.78;;;3.80;99.90;;;;;;5043673;28;20028;-68
2022/03/26 06:31:26;;;;;;;62.20;34.03;;;3.80;99.90;;;;;;5020093;28;20034;-68
2022/03/26 06:33:51;;;;;;;71.25;35.65;;;3.80;99.90;;;;;;5038387;28;20029;-68
2022/03/26 06:36:18;;;;;;;69.93;35.60;;;3.80;99.90;;;;;;5027378;28;20082;-68
2022/03/26 06:38:44;;;;;;;66.95;34.40;;;3.90;99.90;;;;;;5030935;28;20501;-68
2022/03/26 06:41:13;;;;;;;64.47;33.50;;;3.90;99.90;;;;;;5043374;28;20069;-68
2022/03/26 06:43:41;;;;;;;67.82;34.60;;;4.00;99.90;;;;;;5050699;28;20056;-68
2022/03/26 06:46:07;;;;;;;61.58;32.88;;;4.10;99.90;;;;;;5029327;28;20521;-68
2022/03/26 06:48:33;;;;;;;66.03;32.60;;;4.20;99.90;;;;;;5034916;28;20035;-68
2022/03/26 06:51:02;;;;;;;67.47;34.63;;;4.30;99.90;;;;;;5060088;28;20384;-68
2022/03/26 06:53:29;;;;;;;65.00;34.45;;;4.30;99.90;;;;;;5032965;28;20017;-68
2022/03/26 06:55:55;;;;;;;62.67;32.47;;;4.40;99.90;;;;;;5024189;28;20030;-68
2022/03/26 06:58:20;;;;;;;66.25;34.60;;;4.50;99.90;;;;;;5044820;28;20036;-68
2022/03/26 07:00:46;;;;;;;62.72;34.05;;;4.60;99.90;;;;;;5049117;28;20108;-68
2022/03/26 07:03:12;;;;;;;60.83;32.50;;;4.60;99.90;;;;;;5060554;28;20025;-68
2022/03/26 07:05:37;;;;;;;59.38;33.10;;;4.70;99.90;;;;;;5049136;28;20548;-68
2022/03/26 07:08:04;;;;;;;61.88;32.85;;;4.80;99.90;;;;;;5046833;28;20099;-68
2022/03/26 07:10:29;;;;;;;62.92;34.30;;;4.80;99.90;;;;;;5040768;28;20151;-68
2022/03/26 07:12:55;;;;;;;65.43;33.95;;;4.90;99.90;;;;;;5028991;28;20032;-68
2022/03/26 07:15:20;;;;;;;60.97;33.22;;;5.00;99.90;;;;;;5038128;28;20476;-68
2022/03/26 07:17:46;;;;;;;66.00;32.83;;;5.00;99.90;;;;;;5049019;28;20033;-68
2022/03/26 07:20:14;;;;;;;60.60;33.00;;;5.10;99.90;;;;;;5043061;28;20397;-68
2022/03/26 07:22:43;;;;;;;59.83;31.67;;;5.10;99.90;;;;;;5043379;28;20101;-68
2022/03/26 07:25:09;;;;;;;61.88;33.05;;;5.20;99.90;;;;;;5027270;28;20251;-68
2022/03/26 07:27:36;;;;;;;61.95;32.35;;;5.30;99.90;;;;;;5033438;28;20599;-66
2022/03/26 07:30:04;;;;;;;59.50;33.10;;;5.30;99.90;;;;;;5039317;28;20084;-66
2022/03/26 07:32:29;;;;;;;60.92;32.65;;;5.50;99.90;;;;;;5051476;28;20053;-66
2022/03/26 07:34:55;;;;;;;62.20;32.85;;;5.50;99.90;;;;;;5050587;28;20052;-67
2022/03/26 07:37:21;;;;;;;61.90;32.10;;;5.60;99.90;;;;;;5043876;28;20037;-66
2022/03/26 07:39:47;;;;;;;65.30;35.33;;;5.70;99.90;;;;;;5044838;28;20033;-66
2022/03/26 07:42:12;;;;;;;65.80;33.22;;;5.80;99.90;;;;;;5047150;28;20090;-66
2022/03/26 07:44:38;;;;;;;61.88;34.25;;;5.80;99.90;;;;;;5046574;28;20497;-66
2022/03/26 07:47:04;;;;;;;65.00;33.92;;;5.90;99.90;;;;;;5042420;28;20400;-66
2022/03/26 07:49:31;;;;;;;63.97;35.10;;;6.00;99.90;;;;;;5048862;28;21950;-66
2022/03/26 07:51:57;;;;;;;71.22;38.70;;;6.10;99.90;;;;;;5043655;28;20028;-66
2022/03/26 07:54:23;;;;;;;70.65;36.67;;;6.20;99.90;;;;;;5047546;28;20022;-66
2022/03/26 07:56:48;;;;;;;63.55;34.90;;;6.30;99.90;;;;;;5041541;28;20029;-66
2022/03/26 07:59:14;;;;;;;63.40;36.40;;;6.40;99.90;;;;;;5052143;28;20029;-66
2022/03/26 08:01:40;;;;;;;62.97;33.63;;;6.60;99.90;;;;;;5034969;28;20040;-66
2022/03/26 08:04:05;;;;;;;68.38;35.90;;;6.70;99.90;;;;;;5040007;28;20044;-66
2022/03/26 08:06:31;;;;;;;69.03;36.83;;;6.80;99.90;;;;;;5043897;28;20025;-66
2022/03/26 08:08:57;;;;;;;65.88;35.53;;;6.90;99.90;;;;;;5051241;28;20025;-66
2022/03/26 08:11:22;;;;;;;69.68;35.30;;;7.10;99.90;;;;;;5051214;28;20048;-66
2022/03/26 08:13:48;;;;;;;61.33;34.15;;;7.30;99.90;;;;;;5046625;28;20021;-66
2022/03/26 08:16:14;;;;;;;62.13;33.78;;;7.40;99.90;;;;;;5033587;28;20028;-66
2022/03/26 08:18:40;;;;;;;63.75;33.92;;;7.60;99.90;;;;;;5046419;28;20063;-66
2022/03/26 08:21:06;;;;;;;64.55;34.42;;;7.80;99.90;;;;;;5043991;28;20060;-66
2022/03/26 08:23:32;;;;;;;59.35;34.15;;;8.00;99.90;;;;;;5045881;28;20051;-66
2022/03/26 08:28:42;;;;;;;65.10;34.15;;;8.40;99.90;;;;;;5037713;28;20079;-66
2022/03/26 08:31:10;;;;;;;65.10;35.33;;;8.60;99.90;;;;;;5048116;28;20478;-66
2022/03/26 08:33:36;;;;;;;69.88;35.53;;;8.80;99.90;;;;;;5047933;28;20226;-66
2022/03/26 08:36:02;;;;;;;69.93;34.83;;;9.00;99.90;;;;;;5035791;28;20116;-67
2022/03/26 08:38:28;;;;;;;61.83;34.83;;;9.10;99.90;;;;;;5042129;28;20120;-67
2022/03/26 08:40:54;;;;;;;64.20;36.55;;;9.20;99.90;;;;;;5041596;28;20029;-67
2022/03/26 08:43:20;;;;;;;61.88;35.70;;;9.40;99.90;;;;;;5051164;28;20029;-66
2022/03/26 08:45:46;;;;;;;65.72;36.80;;;9.40;99.90;;;;;;5040277;28;20040;-67
2022/03/26 08:48:12;;;;;;;64.15;36.20;;;9.60;99.90;;;;;;5038085;28;20035;-67
2022/03/26 08:50:38;;;;;;;66.22;36.38;;;9.80;99.90;;;;;;5035960;28;20021;-67
2022/03/26 08:53:04;;;;;;;56.55;33.97;;;10.00;99.90;;;;;;5036966;28;20083;-67
2022/03/26 08:55:29;;;;;;;58.35;34.47;;;10.20;99.90;;;;;;5043916;28;20041;-66
2022/03/26 08:57:57;;;;;;;63.75;35.60;;;10.30;99.90;;;;;;5042853;28;20082;-66
2022/03/26 09:00:23;;;;;;;66.47;37.75;;;10.50;99.90;;;;;;5043238;28;20456;-67
2022/03/26 09:02:48;;;;;;;67.45;36.00;;;10.60;99.90;;;;;;5041653;28;20021;-67
2022/03/26 09:05:15;;;;;;;64.60;35.83;;;10.60;99.90;;;;;;5036724;28;20024;-66
2022/03/26 09:07:41;;;;;;;63.47;35.47;;;10.70;99.90;;;;;;5032844;28;20044;-67
2022/03/26 09:10:08;;;;;;;62.05;34.60;;;10.80;99.90;;;;;;5034090;28;20033;-67
2022/03/26 09:12:34;;;;;;;63.47;35.25;;;10.90;99.90;;;;;;5057462;28;20592;-67
2022/03/26 09:15:00;;;;;;;67.40;35.67;;;11.10;99.90;;;;;;5045101;28;20115;-66
2022/03/26 09:17:26;;;;;;;64.07;35.20;;;11.20;99.90;;;;;;5041905;28;20033;-66
2022/03/26 09:19:52;;;;;;;68.47;36.58;;;11.40;99.90;;;;;;5031073;28;20760;-66
2022/03/26 09:22:18;;;;;;;61.25;32.92;;;;;;;;;;5046730;28;20040;-66
2022/03/26 09:24:44;;;;;;;57.92;31.08;;;11.70;99.90;;;;;;5032780;28;20567;-66
2022/03/26 09:27:10;;;;;;;63.13;32.65;;;11.80;99.90;;;;;;5041668;28;20041;-66
2022/03/26 09:29:36;;;;;;;58.55;32.72;;;12.00;99.90;;;;;;5031635;28;20123;-67
2022/03/26 09:32:02;;;;;;;57.20;32.95;;;12.20;99.90;;;;;;5047392;28;20025;-67
2022/03/26 09:34:28;;;;;;;52.17;30.60;;;12.30;99.90;;;;;;5043316;28;20120;-67
2022/03/26 09:36:54;;;;;;;56.78;30.92;;;12.50;99.90;;;;;;5044500;28;20188;-67
2022/03/26 09:39:20;;;;;;;64.22;32.58;;;12.70;99.90;;;;;;5041972;28;20441;-67
2022/03/26 09:41:47;;;;;;;58.60;33.78;;;12.70;99.60;;;;;;5035228;28;20038;-67
2022/03/26 09:44:13;;;;;;;62.72;33.90;;;12.60;99.90;;;;;;5025324;28;20034;-67
2022/03/26 09:46:38;;;;;;;58.17;33.25;;;12.50;99.90;;;;;;5024547;28;20201;-67
2022/03/26 09:49:04;;;;;;;62.55;33.88;;;12.60;99.90;;;;;;5028614;28;20038;-67
2022/03/26 09:51:32;;;;;;;61.38;34.05;;;12.60;99.50;;;;;;5028372;28;20104;-67
2022/03/26 09:53:58;;;;;;;61.85;33.03;;;12.60;99.80;;;;;;5024340;28;20025;-67
2022/03/26 09:56:25;;;;;;;56.50;30.67;;;12.70;98.50;;;;;;5024846;28;20112;-67
2022/03/26 09:58:52;;;;;;;58.17;31.02;;;12.90;98.20;;;;;;5028864;28;20033;-67
2022/03/26 10:01:22;;;;;;;56.50;32.03;;;13.00;98.60;;;;;;5035074;28;20447;-67
2022/03/26 10:04:15;;;;;;;55.13;31.33;;;13.10;98.00;;;;;;5037874;28;20345;-67
2022/03/26 10:06:51;;;;;;;54.13;30.70;;;13.30;97.50;;;;;;5024196;28;20038;-67
2022/03/26 10:09:26;;;;;;;54.58;30.00;;;13.40;97.40;;;;;;5029439;28;20032;-67
2022/03/26 10:12:05;;;;;;;52.65;29.90;;;13.50;97.10;;;;;;5046478;28;20037;-67
2022/03/26 10:14:48;;;;;;;54.60;29.27;;;13.80;97.10;;;;;;5043978;28;20078;-67
2022/03/26 10:17:30;;;;;;;47.92;27.17;;;13.90;96.30;;;;;;5035475;28;20116;-66
2022/03/26 10:20:01;;;;;;;55.97;30.80;;;13.80;96.60;;;;;;5026135;28;20528;-67
2022/03/26 10:22:37;;;;;;;52.25;29.55;;;13.80;96.10;;;;;;5038646;28;20394;-67
2022/03/26 10:25:07;;;;;;;52.90;27.23;;;13.80;96.10;;;;;;5026060;28;20025;-66
2022/03/26 10:27:44;;;;;;;47.70;26.58;;;13.90;97.10;;;;;;5039170;28;20036;-67
2022/03/26 10:30:15;;;;;;;44.15;25.10;;;13.90;96.00;;;;;;5026333;28;20361;-67
2022/03/26 10:32:45;;;;;;;39.72;24.75;;;13.90;96.10;;;;;;5026937;28;20032;-67
2022/03/26 10:35:23;;;;;;;46.28;26.60;;;13.90;95.80;;;;;;5038049;28;20047;-67
2022/03/26 10:37:48;;;;;;;49.33;24.55;;;14.00;96.00;;;;;;5033146;28;20194;-66
2022/03/26 10:40:24;;;;;;;36.15;21.58;;;13.90;95.80;;;;;;5044493;28;20087;-66
2022/03/26 10:43:01;;;;;;;36.63;21.42;;;14.00;95.80;;;;;;5045199;28;20044;-67
2022/03/26 10:45:28;;;;;;;32.03;20.83;;;14.00;96.30;;;;;;5027825;28;20033;-67
2022/03/26 10:47:59;;;;;;;34.17;19.55;;;14.10;96.20;;;;;;5043571;28;20060;-67
2022/03/26 10:50:27;;;;;;;31.10;18.25;;;14.20;95.80;;;;;;5035388;28;20032;-66
2022/03/26 10:52:56;;;;;;;30.85;19.60;;;;;;;;;;5032705;28;20420;-67
2022/03/26 10:55:23;;;;;;;27.95;16.75;;;14.60;95.90;;;;;;5039926;28;20020;-66
2022/03/26 10:57:50;;;;;;;24.88;16.58;;;14.40;95.20;;;;;;5052679;28;20041;-67
2022/03/26 11:00:18;;;;;;;28.08;15.90;;;14.40;95.00;;;;;;5051158;28;20024;-67
2022/03/26 11:02:44;;;;;;;23.88;14.35;;;14.50;95.70;;;;;;5046701;28;20033;-67
2022/03/26 11:05:12;;;;;;;24.75;14.32;;;14.70;94.70;;;;;;5049055;28;20055;-67
2022/03/26 11:07:40;;;;;;;18.10;12.55;;;;;;;;;;5041991;28;20037;-67
2022/03/26 11:10:07;;;;;;;24.50;13.63;;;;;;;;;;5032717;28;20022;-67
2022/03/26 11:12:33;;;;;;;24.63;12.50;;;;;;;;;;5036874;28;20371;-67
2022/03/26 11:15:02;;;;;;;19.30;11.88;;;;;;;;;;5030342;28;20037;-67
2022/03/26 11:17:31;;;;;;;16.17;10.98;;;;;;;;;;5032994;28;20270;-67
2022/03/26 11:20:21;;;;;;;18.40;10.63;;;;;;;;;;5032860;28;20116;-67
2022/03/26 11:22:47;;;;;;;19.23;10.85;;;;;;;;;;5046659;28;20412;-67
2022/03/26 11:25:32;;;;;;;19.27;11.05;;;;;;;;;;5031500;28;20067;-67
2022/03/26 11:28:21;;;;;;;14.93;9.82;;;;;;;;;;5041008;28;20033;-66
2022/03/26 11:30:59;;;;;;;17.90;9.88;;;;;;;;;;5045100;28;20065;-66
2022/03/26 11:33:33;;;;;;;18.15;9.57;;;;;;;;;;5033658;28;20036;-67
2022/03/26 11:36:00;;;;;;;15.82;10.13;;;;;;;;;;5032036;28;20111;-67
2022/03/26 11:38:28;;;;;;;16.65;9.35;;;;;;;;;;5031956;28;20653;-67
2022/03/26 11:40:56;;;;;;;14.10;9.25;;;;;;;;;;5036798;28;20127;-67
2022/03/26 11:43:56;;;;;;;15.95;8.75;;;;;;;;;;5033467;28;20031;-66
2022/03/26 11:52:23;;;;;;;16.95;9.10;;;;;;;;;;5044987;28;20631;-67
2022/03/26 11:54:53;;;;;;;14.57;9.20;;;;;;;;;;5030792;28;20108;-66
2022/03/26 11:57:20;;;;;;;13.98;6.47;;;;;;;;;;5034373;28;20530;-66
2022/03/26 11:59:47;;;;;;;10.35;5.82;;;;;;;;;;5050418;28;20091;-66
2022/03/26 12:02:19;;;;;;;7.40;4.95;;;;;;;;;;5050674;28;20029;-66
2022/03/26 12:04:50;;;;;;;8.32;5.22;;;;;;;;;;5028465;28;20029;-66
2022/03/26 12:07:16;;;;;;;9.70;5.20;;;;;;;;;;5030045;28;20440;-67
2022/03/26 12:09:42;;;;;;;8.70;5.22;;;;;;;;;;5031836;28;20435;-67
2022/03/26 12:12:11;;;;;;;9.80;5.63;;;;;;;;;;5031601;28;20508;-67
2022/03/26 12:14:55;;;;;;;9.30;4.93;;;;;;;;;;5028998;28;20018;-67
2022/03/26 12:17:40;;;;;;;7.13;4.40;;;;;;;;;;5034993;28;20408;-67
2022/03/26 12:20:23;;;;;;;7.47;5.10;;;;;;;;;;5028445;28;20112;-67
2022/03/26 12:22:50;;;;;;;7.43;4.95;;;;;;;;;;5028536;28;20029;-67
2022/03/26 12:25:16;;;;;;;12.35;5.00;;;;;;;;;;5035228;28;20558;-67
2022/03/26 12:27:45;;;;;;;9.57;5.78;;;;;;;;;;5046638;28;20075;-67
2022/03/26 12:30:13;;;;;;;12.40;6.70;;;;;;;;;;5027987;28;20050;-67
2022/03/26 12:32:40;;;;;;;11.82;6.50;;;;;;;;;;5041495;28;20028;-67
2022/03/26 12:35:09;;;;;;;9.45;6.28;;;;;;;;;;5029051;28;20026;-67
2022/03/26 12:37:35;;;;;;;12.90;6.80;;;;;;;;;;5032944;28;20058;-67
2022/03/26 12:40:04;;;;;;;9.15;6.88;;;;;;;;;;5038633;28;20047;-67
2022/03/26 12:42:30;;;;;;;10.48;6.03;;;;;;;;;;5028174;28;20034;-67
2022/03/26 12:44:56;;;;;;;10.18;7.38;;;;;;;;;;5026223;28;20029;-67
2022/03/26 12:47:24;;;;;;;10.55;7.00;;;;;;;;;;5036429;28;20543;-67
2022/03/26 12:49:51;;;;;;;11.98;7.25;;;;;;;;;;5037096;28;20028;-67
2022/03/26 12:52:20;;;;;;;15.15;7.88;;;;;;;;;;5028444;28;20033;-67
2022/03/26 12:54:52;;;;;;;12.65;7.75;;;;;;;;;;5032254;28;20535;-67
2022/03/26 12:57:19;;;;;;;12.85;8.75;;;;;;;;;;5040960;28;20033;-67
2022/03/26 12:59:52;;;;;;;14.65;8.65;;;;;;;;;;5039184;28;20033;-67